createdAt,value
2022-08-10T00:01:41.080Z,19.67
2022-08-10T00:04:09.050Z,19.66
2022-08-10T00:09:11.425Z,19.64
2022-08-10T00:11:39.335Z,19.66
2022-08-10T00:14:07.302Z,19.70
2022-08-10T00:16:36.704Z,19.66
2022-08-10T00:24:00.656Z,19.46
2022-08-10T00:27:52.145Z,19.45
2022-08-10T00:31:57.981Z,19.35
2022-08-10T00:36:55.434Z,19.17
2022-08-10T00:39:23.538Z,19.14
2022-08-10T00:42:06.482Z,19.12
2022-08-10T00:44:35.514Z,19.06
2022-08-10T00:47:05.039Z,19.02
2022-08-10T00:49:33.057Z,18.98
2022-08-10T00:52:01.109Z,19.04
2022-08-10T00:54:29.469Z,18.95
2022-08-10T00:57:17.907Z,18.90
2022-08-10T01:02:30.330Z,18.80
2022-08-10T01:05:02.075Z,18.76
2022-08-10T01:07:52.252Z,18.80
2022-08-10T01:10:30.136Z,18.78
2022-08-10T01:13:05.383Z,18.73
2022-08-10T01:15:37.929Z,18.59
2022-08-10T01:18:10.633Z,18.53
2022-08-10T01:20:46.534Z,18.52
2022-08-10T01:23:51.809Z,18.58
2022-08-10T01:26:58.719Z,18.51
2022-08-10T01:29:53.507Z,18.55
2022-08-10T01:32:31.274Z,18.45
2022-08-10T01:35:07.254Z,18.48
2022-08-10T01:37:43.650Z,18.36
2022-08-10T01:40:25.227Z,18.32
2022-08-10T01:45:26.654Z,18.19
2022-08-10T01:48:16.477Z,18.12
2022-08-10T02:01:21.163Z,18.26
2022-08-10T02:04:04.128Z,18.31
2022-08-10T02:06:38.012Z,18.22
2022-08-10T02:09:08.319Z,18.33
2022-08-10T02:11:57.485Z,18.30
2022-08-10T02:14:33.930Z,18.29
2022-08-10T02:17:09.016Z,18.27
2022-08-10T02:20:00.124Z,18.33
2022-08-10T02:22:35.798Z,18.15
2022-08-10T02:27:37.581Z,17.82
2022-08-10T02:32:39.827Z,17.80
2022-08-10T02:35:21.821Z,17.76
2022-08-10T02:37:52.430Z,17.80
2022-08-10T02:45:21.827Z,17.63
2022-08-10T02:48:45.643Z,17.56
2022-08-10T02:51:19.588Z,17.49
2022-08-10T02:54:11.441Z,17.47
2022-08-10T02:56:43.080Z,17.41
2022-08-10T02:59:13.843Z,17.39
2022-08-10T03:01:46.348Z,17.28
2022-08-10T03:04:20.766Z,17.33
2022-08-10T03:09:43.743Z,17.23
2022-08-10T03:12:35.530Z,17.16
2022-08-10T03:15:04.089Z,17.08
2022-08-10T03:17:34.039Z,17.11
2022-08-10T03:20:36.738Z,17.11
2022-08-10T03:22:54.171Z,17.01
2022-08-10T03:25:25.148Z,16.84
2022-08-10T03:27:57.092Z,16.73
2022-08-10T03:30:33.634Z,16.71
2022-08-10T03:33:03.761Z,16.68
2022-08-10T03:35:33.301Z,16.64
2022-08-10T03:38:01.719Z,16.56
2022-08-10T03:40:46.345Z,16.53
2022-08-10T03:43:18.484Z,16.55
2022-08-10T03:45:54.957Z,16.51
2022-08-10T03:48:42.418Z,16.71
2022-08-10T03:51:15.884Z,16.61
2022-08-10T03:54:05.889Z,16.54
2022-08-10T03:56:33.363Z,16.52
2022-08-10T03:59:02.090Z,16.40
2022-08-10T04:02:43.352Z,16.47
2022-08-10T04:04:24.259Z,16.46
2022-08-10T04:06:55.745Z,16.44
2022-08-10T04:09:25.098Z,16.40
2022-08-10T04:12:11.567Z,16.39
2022-08-10T04:14:51.365Z,16.34
2022-08-10T04:18:04.121Z,16.37
2022-08-10T04:20:17.582Z,16.37
2022-08-10T04:22:49.768Z,16.31
2022-08-10T04:25:18.447Z,16.37
2022-08-10T04:27:47.502Z,16.25
2022-08-10T04:30:15.797Z,16.30
2022-08-10T04:35:17.447Z,16.33
2022-08-10T04:37:49.503Z,16.29
2022-08-10T04:40:28.638Z,16.28
2022-08-10T04:43:03.306Z,16.37
2022-08-10T04:45:47.367Z,16.39
2022-08-10T04:48:39.900Z,16.40
2022-08-10T04:51:11.219Z,16.36
2022-08-10T04:54:05.809Z,16.26
2022-08-10T04:56:37.287Z,16.27
2022-08-10T04:59:06.646Z,16.30
2022-08-10T05:02:21.449Z,16.33
2022-08-10T05:04:34.488Z,16.37
2022-08-10T05:07:08.753Z,16.36
2022-08-10T05:10:01.051Z,16.41
2022-08-10T05:12:26.670Z,16.37
2022-08-10T05:14:54.882Z,16.39
2022-08-10T05:17:23.255Z,16.44
2022-08-10T05:20:03.409Z,16.49
2022-08-10T05:22:35.503Z,16.68
2022-08-10T05:27:34.710Z,16.78
2022-08-10T05:30:03.838Z,16.79
2022-08-10T05:32:55.455Z,16.85
2022-08-10T05:35:20.660Z,17.02
2022-08-10T05:38:10.520Z,17.13
2022-08-10T05:40:39.393Z,17.21
2022-08-10T05:43:08.018Z,17.28
2022-08-10T05:48:57.115Z,17.34
2022-08-10T05:51:12.490Z,17.48
2022-08-10T05:54:01.838Z,17.56
2022-08-10T05:56:54.018Z,17.64
2022-08-10T06:00:11.145Z,17.74
2022-08-10T06:02:33.143Z,17.84
2022-08-10T06:04:56.646Z,17.95
2022-08-10T06:09:59.818Z,18.20
2022-08-10T06:12:32.194Z,18.43
2022-08-10T06:15:05.588Z,18.69
2022-08-10T06:17:39.484Z,18.80
2022-08-10T06:20:08.522Z,18.83
2022-08-10T06:25:44.294Z,18.93
2022-08-10T06:27:57.459Z,19.13
2022-08-10T06:35:29.174Z,19.66
2022-08-10T06:37:59.578Z,19.84
2022-08-10T06:40:30.645Z,20.03
2022-08-10T06:43:02.466Z,20.20
2022-08-10T06:48:05.369Z,20.54
2022-08-10T06:53:53.761Z,21.05
2022-08-10T06:56:37.605Z,21.09
2022-08-10T06:59:13.431Z,21.26
2022-08-10T07:01:54.337Z,21.40
2022-08-10T07:04:32.345Z,21.53
2022-08-10T07:07:05.287Z,21.72
2022-08-10T07:09:36.411Z,21.94
2022-08-10T07:12:08.288Z,22.16
2022-08-10T07:14:42.278Z,22.07
2022-08-10T07:17:15.772Z,22.14
2022-08-10T07:19:50.559Z,22.35
2022-08-10T07:23:01.505Z,22.45
2022-08-10T07:25:13.324Z,22.54
2022-08-10T07:28:00.788Z,22.76
2022-08-10T07:30:36.949Z,23.02
2022-08-10T07:33:06.788Z,23.22
2022-08-10T07:35:42.987Z,23.54
2022-08-10T07:38:18.048Z,23.83
2022-08-10T07:40:47.486Z,23.89
2022-08-10T07:43:17.982Z,24.06
2022-08-10T07:45:48.903Z,24.21
2022-08-10T07:48:20.844Z,24.63
2022-08-10T07:50:50.260Z,24.69
2022-08-10T07:53:22.803Z,24.67
2022-08-10T07:56:04.177Z,24.86
2022-08-10T07:58:46.356Z,25.04
2022-08-10T08:01:24.895Z,25.10
2022-08-10T08:04:05.625Z,25.20
2022-08-10T08:06:41.301Z,25.87
2022-08-10T08:09:10.076Z,26.11
2022-08-10T08:11:40.535Z,26.80
2022-08-10T08:14:09.853Z,26.91
2022-08-10T08:24:07.808Z,26.94
2022-08-10T08:24:52.277Z,27.41
2022-08-10T08:27:22.199Z,28.26
2022-08-10T08:29:51.730Z,28.97
2022-08-10T08:34:55.694Z,28.26
2022-08-10T08:38:32.123Z,27.47
2022-08-10T08:40:18.011Z,28.49
2022-08-10T08:43:06.030Z,28.11
2022-08-10T08:46:01.571Z,29.12
2022-08-10T08:48:53.351Z,28.54
2022-08-10T08:52:07.018Z,29.26
2022-08-10T08:57:12.446Z,30.35
2022-08-10T09:00:05.307Z,29.11
2022-08-10T09:02:54.464Z,28.98
2022-08-10T09:11:31.684Z,28.44
2022-08-10T09:14:07.350Z,29.17
2022-08-10T09:16:44.399Z,29.97
2022-08-10T09:19:35.530Z,29.95
2022-08-10T09:22:18.181Z,29.75
2022-08-10T09:24:53.309Z,30.54
2022-08-10T09:27:24.028Z,30.26
2022-08-10T09:29:56.254Z,28.37
2022-08-10T09:36:13.678Z,27.68
2022-08-10T09:36:20.908Z,27.90
2022-08-10T09:38:43.680Z,29.12
2022-08-10T09:41:24.222Z,29.58
2022-08-10T09:49:25.050Z,30.40
2022-08-10T09:54:55.407Z,30.76
2022-08-10T10:02:53.366Z,30.91
2022-08-10T10:08:10.863Z,30.90
2022-08-10T10:10:55.159Z,30.55
2022-08-10T10:13:50.637Z,30.73
2022-08-10T10:17:04.794Z,31.51
2022-08-10T10:20:04.526Z,31.53
2022-08-10T10:22:44.499Z,30.70
2022-08-10T10:27:59.324Z,31.62
2022-08-10T10:33:13.051Z,31.21
2022-08-10T10:35:48.771Z,30.71
2022-08-10T10:38:18.610Z,29.32
2022-08-10T10:43:41.060Z,29.89
2022-08-10T10:46:24.002Z,29.32
2022-08-10T10:54:09.479Z,30.68
2022-08-10T11:07:56.800Z,31.84
2022-08-10T11:16:06.683Z,32.88
2022-08-10T11:21:28.238Z,32.21
2022-08-10T11:26:56.696Z,32.74
2022-08-10T11:45:10.058Z,33.00
2022-08-10T11:47:46.125Z,33.56
2022-08-10T11:50:22.112Z,34.10
2022-08-10T11:58:01.642Z,32.50
2022-08-10T12:00:33.106Z,32.65
2022-08-10T12:11:10.598Z,33.12
2022-08-10T12:13:58.430Z,34.34
2022-08-10T12:24:21.251Z,34.50
2022-08-10T13:22:25.388Z,34.88
2022-08-10T13:55:53.220Z,35.58
2022-08-10T14:23:48.510Z,35.42
2022-08-10T15:40:24.657Z,34.15
2022-08-10T17:04:06.034Z,32.29
2022-08-10T17:06:35.385Z,32.04
2022-08-10T17:11:38.711Z,31.68
2022-08-10T17:26:52.968Z,31.52
2022-08-10T17:34:54.269Z,30.89
2022-08-10T17:47:28.711Z,30.19
2022-08-10T17:49:58.470Z,30.08
2022-08-10T17:52:30.189Z,30.18
2022-08-10T17:57:36.198Z,28.92
2022-08-10T18:00:07.002Z,28.91
2022-08-10T18:12:47.531Z,28.11
2022-08-10T18:20:31.792Z,27.60
2022-08-10T18:25:34.577Z,27.39
2022-08-10T18:30:45.608Z,27.18
2022-08-10T18:33:20.452Z,27.05
2022-08-10T18:38:22.443Z,26.90
2022-08-10T18:40:54.332Z,26.78
2022-08-10T18:44:05.886Z,26.72
2022-08-10T18:46:28.012Z,26.59
2022-08-10T18:49:05.791Z,26.49
2022-08-10T18:51:46.930Z,26.40
2022-08-10T18:54:39.429Z,26.34
2022-08-10T19:02:56.449Z,25.96
2022-08-10T19:05:37.972Z,25.87
2022-08-10T19:11:31.193Z,25.73
2022-08-10T19:14:04.094Z,25.53
2022-08-10T19:16:39.579Z,25.40
2022-08-10T19:19:22.109Z,25.23
2022-08-10T19:21:59.325Z,25.22
2022-08-10T19:24:37.501Z,25.13
2022-08-10T19:27:15.365Z,25.05
2022-08-10T19:30:11.588Z,25.00
2022-08-10T19:32:59.964Z,24.84
2022-08-10T19:38:35.307Z,24.75
2022-08-10T19:41:11.876Z,24.65
2022-08-10T19:44:00.953Z,24.62
2022-08-10T19:46:42.279Z,24.51
2022-08-10T19:49:19.732Z,24.51
2022-08-10T19:54:36.410Z,24.24
2022-08-10T19:57:12.404Z,24.16
2022-08-10T20:00:15.926Z,24.05
2022-08-10T20:02:52.165Z,24.01
2022-08-10T20:05:31.116Z,23.99
2022-08-10T20:08:07.265Z,23.91
2022-08-10T20:10:46.635Z,23.77
2022-08-10T20:13:22.348Z,23.75
2022-08-10T20:15:59.315Z,23.57
2022-08-10T20:21:12.261Z,23.46
2022-08-10T20:23:53.984Z,23.39
2022-08-10T20:26:30.903Z,23.28
2022-08-10T20:29:10.201Z,23.16
2022-08-10T20:31:51.621Z,23.08
2022-08-10T20:36:58.417Z,23.02
2022-08-10T20:39:44.743Z,23.08
2022-08-10T20:42:21.912Z,23.07
2022-08-10T20:44:56.935Z,22.95
2022-08-10T20:47:44.295Z,22.90
2022-08-10T20:50:32.924Z,22.79
2022-08-10T20:53:05.276Z,22.74
2022-08-10T20:55:57.537Z,22.62
2022-08-10T20:58:54.781Z,22.66
2022-08-10T21:02:06.485Z,22.63
2022-08-10T21:04:42.806Z,22.46
2022-08-10T21:07:57.797Z,22.49
2022-08-10T21:13:19.590Z,22.26
2022-08-10T21:15:59.856Z,22.14
2022-08-10T21:18:54.680Z,22.13
2022-08-10T21:21:45.533Z,22.21
2022-08-10T21:24:41.178Z,22.20
2022-08-10T21:27:27.200Z,22.13
2022-08-10T21:30:09.167Z,22.06
2022-08-10T21:32:48.778Z,22.02
2022-08-10T21:35:36.775Z,21.92
2022-08-10T21:38:12.923Z,21.84
2022-08-10T21:41:18.119Z,21.76
2022-08-10T21:44:04.920Z,21.69
2022-08-10T21:47:02.795Z,21.59
2022-08-10T21:50:03.894Z,21.52
2022-08-10T21:53:04.268Z,21.48
2022-08-10T21:56:14.566Z,21.40
2022-08-10T21:59:08.647Z,21.33
2022-08-10T22:01:59.461Z,21.23
2022-08-10T22:04:45.798Z,21.18
2022-08-10T22:07:38.377Z,21.03
2022-08-10T22:10:27.069Z,21.04
2022-08-10T22:13:19.586Z,21.13
2022-08-10T22:16:11.546Z,21.10
2022-08-10T22:19:02.953Z,21.01
2022-08-10T22:22:00.341Z,21.11
2022-08-10T22:25:02.068Z,21.00
2022-08-10T22:27:51.397Z,20.96
2022-08-10T22:30:38.672Z,20.99
2022-08-10T22:43:10.009Z,20.60
2022-08-10T22:46:03.386Z,20.60
2022-08-10T22:48:52.129Z,20.57
2022-08-10T22:51:23.765Z,20.54
2022-08-10T22:54:30.481Z,20.42
2022-08-10T22:57:18.501Z,20.33
2022-08-10T22:59:49.422Z,20.30
2022-08-10T23:02:29.506Z,20.23
2022-08-10T23:05:03.061Z,20.12
2022-08-10T23:07:33.106Z,20.03
2022-08-10T23:10:06.730Z,20.03
2022-08-10T23:15:37.407Z,19.88
2022-08-10T23:20:57.164Z,19.74
2022-08-10T23:26:00.242Z,19.79
2022-08-10T23:31:13.448Z,19.89
2022-08-10T23:33:43.088Z,19.80
2022-08-10T23:36:34.558Z,19.71
2022-08-10T23:39:25.661Z,19.66
2022-08-10T23:41:59.738Z,19.56
2022-08-10T23:44:36.136Z,19.52
2022-08-10T23:47:06.826Z,19.45
2022-08-10T23:49:37.320Z,19.33
2022-08-10T23:52:11.897Z,19.20
2022-08-10T23:54:51.274Z,19.19
2022-08-10T23:57:22.717Z,19.16
2022-08-10T23:59:56.773Z,19.10
